createdAt,value
2023-02-06T00:37:51.462Z,8.63
2023-02-06T00:40:18.535Z,10.48
2023-02-06T00:42:45.139Z,12.27
2023-02-06T00:45:11.786Z,11.18
2023-02-06T00:48:38.007Z,12.00
2023-02-06T00:51:26.428Z,10.32
2023-02-06T01:07:02.831Z,10.13
2023-02-06T01:12:17.904Z,10.95
2023-02-06T01:14:44.463Z,9.55
2023-02-06T01:17:11.134Z,10.15
2023-02-06T01:19:38.328Z,12.00
2023-02-06T01:22:50.529Z,10.95
2023-02-06T01:25:37.740Z,10.52
2023-02-06T02:04:09.076Z,6.93
2023-02-06T02:09:04.094Z,6.72
2023-02-06T02:11:37.550Z,6.37
2023-02-06T02:14:07.396Z,7.07
2023-02-06T02:37:28.333Z,5.80
2023-02-06T02:39:57.890Z,5.62
2023-02-06T02:42:30.568Z,5.72
2023-02-06T02:45:21.182Z,6.28
2023-02-06T02:47:55.909Z,5.82
2023-02-06T03:16:40.669Z,7.37
2023-02-06T03:19:13.797Z,7.07
2023-02-06T03:27:16.840Z,5.55
2023-02-06T03:29:45.995Z,6.57
2023-02-06T03:32:20.476Z,5.55
2023-02-06T03:34:55.684Z,5.55
2023-02-06T03:37:24.239Z,5.57
2023-02-06T03:40:54.516Z,5.10
2023-02-06T04:01:04.726Z,5.50
2023-02-06T04:03:32.245Z,5.35
2023-02-06T04:05:59.412Z,5.65
2023-02-06T04:08:26.114Z,5.75
2023-02-06T04:10:52.686Z,6.00
2023-02-06T04:13:19.241Z,5.50
2023-02-06T04:16:16.680Z,6.40
2023-02-06T04:19:04.985Z,8.02
2023-02-06T04:21:31.592Z,8.75
2023-02-06T04:23:58.241Z,6.57
2023-02-06T05:10:59.795Z,4.75
2023-02-06T05:13:26.414Z,5.60
2023-02-06T05:15:53.083Z,5.35
2023-02-06T05:18:19.838Z,5.03
2023-02-06T05:20:46.774Z,5.53
2023-02-06T05:23:13.504Z,5.70
2023-02-06T05:26:20.863Z,6.82
2023-02-06T05:29:12.759Z,7.95
2023-02-06T05:31:39.469Z,8.30
2023-02-06T05:34:06.172Z,8.25
2023-02-06T05:36:32.726Z,8.43
2023-02-06T05:38:59.292Z,7.57
2023-02-06T05:41:25.831Z,8.70
2023-02-06T05:43:52.397Z,8.10
2023-02-06T05:46:19.499Z,8.32
2023-02-06T05:48:46.228Z,8.65
2023-02-06T05:51:12.880Z,8.70
2023-02-06T05:53:39.563Z,8.32
2023-02-06T05:56:06.309Z,8.65
2023-02-06T07:10:49.210Z,7.68
2023-02-06T07:13:15.786Z,7.90
2023-02-06T07:15:43.285Z,8.60
2023-02-06T07:43:16.598Z,5.93
2023-02-06T07:45:43.620Z,5.62
2023-02-06T07:48:10.632Z,6.55
2023-02-06T07:50:37.409Z,6.78
2023-02-06T07:53:04.016Z,6.20
2023-02-06T07:55:30.605Z,6.53
2023-02-06T07:57:57.229Z,6.62
2023-02-06T08:00:23.897Z,5.80
2023-02-06T08:02:51.707Z,6.87
2023-02-06T08:05:18.500Z,7.15
2023-02-06T08:07:45.088Z,5.87
2023-02-06T08:10:11.657Z,6.28
2023-02-06T08:12:38.305Z,6.15
2023-02-06T08:15:05.154Z,7.50
2023-02-06T08:17:31.805Z,6.47
2023-02-06T08:19:58.350Z,7.35
2023-02-06T08:30:16.845Z,7.97
2023-02-06T08:32:43.450Z,6.53
2023-02-06T08:35:10.090Z,6.82
2023-02-06T08:38:26.460Z,6.70
2023-02-06T08:41:50.932Z,6.45
2023-02-06T08:44:18.836Z,7.07
2023-02-06T08:46:47.717Z,6.85
2023-02-06T08:49:17.445Z,6.43
2023-02-06T08:51:44.517Z,7.03
2023-02-06T08:54:15.477Z,6.80
2023-02-06T08:57:01.179Z,6.28
2023-02-06T08:59:29.452Z,6.95
2023-02-06T09:01:56.116Z,6.87
2023-02-06T09:04:22.982Z,6.50
2023-02-06T09:06:49.690Z,7.07
2023-02-06T09:09:34.643Z,7.65
2023-02-06T09:12:13.183Z,8.35
2023-02-06T09:14:39.805Z,7.78
2023-02-06T09:17:06.408Z,7.20
2023-02-06T09:19:32.998Z,6.85
2023-02-06T09:21:59.561Z,7.20
2023-02-06T09:24:27.469Z,6.53
2023-02-06T09:29:31.636Z,7.25
2023-02-06T09:31:58.893Z,6.70
2023-02-06T09:34:28.248Z,6.85
2023-02-06T09:36:56.765Z,8.02
2023-02-06T09:39:24.177Z,7.03
2023-02-06T09:42:50.036Z,7.15
2023-02-06T09:45:46.996Z,6.45
2023-02-06T09:48:26.111Z,7.68
2023-02-06T09:51:08.111Z,6.97
2023-02-06T09:53:42.289Z,7.53
2023-02-06T09:56:46.138Z,7.10
2023-02-06T10:02:06.219Z,6.90
2023-02-06T10:04:44.224Z,7.90
2023-02-06T10:07:32.481Z,6.00
2023-02-06T10:10:15.470Z,6.30
2023-02-06T10:12:54.781Z,6.00
2023-02-06T10:15:40.497Z,6.25
2023-02-06T10:18:25.436Z,6.30
2023-02-06T10:21:08.150Z,8.98
2023-02-06T10:27:17.736Z,5.43
2023-02-06T10:29:47.769Z,5.18
2023-02-06T10:32:36.140Z,5.60
2023-02-06T10:35:29.420Z,6.03
2023-02-06T10:38:21.078Z,5.87
2023-02-06T11:03:57.605Z,5.72
2023-02-06T11:06:26.377Z,6.07
2023-02-06T11:08:53.010Z,5.30
2023-02-06T11:11:31.896Z,5.60
2023-02-06T11:14:14.301Z,5.75
2023-02-06T11:16:41.828Z,6.07
2023-02-06T11:19:14.233Z,5.70
2023-02-06T11:21:51.859Z,5.53
2023-02-06T11:24:22.097Z,5.97
2023-02-06T11:26:54.659Z,6.45
2023-02-06T11:29:25.389Z,6.22
2023-02-06T11:33:04.397Z,6.40
2023-02-06T11:35:45.401Z,5.50
2023-02-06T11:38:20.838Z,5.95
2023-02-06T11:41:02.162Z,5.57
2023-02-06T11:43:31.149Z,6.43
2023-02-06T11:46:36.633Z,5.80
2023-02-06T11:49:19.264Z,5.45
2023-02-06T11:51:54.857Z,5.15
2023-02-06T11:54:30.002Z,4.62
2023-02-06T11:57:23.185Z,5.40
2023-02-06T11:59:53.927Z,5.72
2023-02-06T12:02:50.794Z,5.20
2023-02-06T12:05:19.450Z,5.65
2023-02-06T12:07:55.716Z,5.28
2023-02-06T12:10:25.564Z,5.90
2023-02-06T12:13:34.675Z,6.03
2023-02-06T12:16:20.965Z,5.95
2023-02-06T12:18:51.719Z,6.12
2023-02-06T12:21:43.186Z,5.70
2023-02-06T12:24:35.147Z,5.68
2023-02-06T12:27:06.906Z,6.55
2023-02-06T12:29:41.909Z,6.32
2023-02-06T12:32:36.778Z,5.65
2023-02-06T12:35:24.357Z,7.62
2023-02-06T12:38:00.136Z,7.75
2023-02-06T12:40:54.486Z,6.65
2023-02-06T12:44:01.088Z,6.35
2023-02-06T12:46:53.362Z,6.37
2023-02-06T12:49:27.424Z,6.22
2023-02-06T12:51:57.306Z,6.95
2023-02-06T12:54:31.344Z,6.30
2023-02-06T12:57:31.489Z,6.50
2023-02-06T13:00:12.804Z,6.47
2023-02-06T13:03:01.317Z,6.43
2023-02-06T13:05:30.723Z,7.22
2023-02-06T13:08:05.345Z,6.40
2023-02-06T13:10:31.893Z,6.43
2023-02-06T13:12:59.724Z,6.47
2023-02-06T13:15:31.223Z,5.80
2023-02-06T13:17:58.046Z,6.68
2023-02-06T13:20:26.346Z,6.45
2023-02-06T13:22:54.010Z,6.68
2023-02-06T13:25:28.576Z,6.40
2023-02-06T13:27:56.344Z,7.07
2023-02-06T13:30:29.007Z,7.97
2023-02-06T13:32:58.838Z,7.03
2023-02-06T13:35:29.215Z,6.50
2023-02-06T13:38:34.261Z,7.03
2023-02-06T13:41:14.086Z,6.37
2023-02-06T13:43:56.587Z,7.05
2023-02-06T13:46:43.555Z,7.30
2023-02-06T13:49:33.785Z,6.90
2023-02-06T13:52:23.979Z,6.65
2023-02-06T13:55:17.394Z,6.57
2023-02-06T13:58:05.239Z,7.10
2023-02-06T14:00:38.283Z,7.32
2023-02-06T14:03:21.749Z,6.97
2023-02-06T14:06:16.558Z,7.47
2023-02-06T14:08:48.244Z,7.80
2023-02-06T14:11:46.905Z,7.25
2023-02-06T14:14:33.536Z,7.97
2023-02-06T14:17:13.656Z,7.62
2023-02-06T14:19:52.986Z,7.57
2023-02-06T14:22:28.732Z,7.03
2023-02-06T14:25:33.909Z,7.15
2023-02-06T14:28:17.058Z,7.70
2023-02-06T14:33:18.829Z,7.10
2023-02-06T14:35:55.417Z,8.60
2023-02-06T14:38:41.573Z,9.18
2023-02-06T14:41:08.761Z,8.75
2023-02-06T14:43:39.599Z,10.00
2023-02-06T14:46:35.528Z,8.05
2023-02-06T14:49:46.749Z,8.65
2023-02-06T14:52:21.697Z,12.40
2023-02-06T14:54:48.407Z,8.70
2023-02-06T14:57:31.609Z,8.43
2023-02-06T14:59:58.125Z,8.75
2023-02-06T15:02:42.717Z,7.55
2023-02-06T15:05:24.276Z,7.35
2023-02-06T15:08:02.255Z,7.62
2023-02-06T15:10:32.291Z,8.50
2023-02-06T15:12:58.961Z,29.40
2023-02-06T15:18:21.128Z,9.32
2023-02-06T15:21:01.992Z,8.50
2023-02-06T15:24:09.559Z,8.82
2023-02-06T15:27:25.473Z,9.70
2023-02-06T15:30:25.887Z,14.07
2023-02-06T15:32:55.903Z,10.20
2023-02-06T15:35:22.611Z,8.48
2023-02-06T15:37:50.277Z,9.15
2023-02-06T15:40:24.502Z,8.70
2023-02-06T15:42:51.391Z,9.00
2023-02-06T15:45:28.671Z,8.98
2023-02-06T15:47:56.798Z,9.00
2023-02-06T15:50:27.887Z,8.85
2023-02-06T15:52:55.772Z,10.25
2023-02-06T15:55:22.322Z,10.52
2023-02-06T15:57:49.932Z,11.20
2023-02-06T16:05:31.924Z,9.25
2023-02-06T16:08:00.233Z,9.55
2023-02-06T16:10:59.910Z,11.35
2023-02-06T16:17:08.439Z,10.35
2023-02-06T16:19:48.517Z,14.63
2023-02-06T16:22:20.977Z,12.37
2023-02-06T16:24:51.376Z,10.48
2023-02-06T16:27:22.017Z,11.12
2023-02-06T16:29:51.871Z,9.55
2023-02-06T16:32:27.711Z,11.05
2023-02-06T16:34:55.542Z,14.57
2023-02-06T16:37:28.395Z,29.27
2023-02-06T16:39:55.815Z,26.05
2023-02-06T16:42:32.352Z,22.90
2023-02-06T16:45:03.829Z,20.62
2023-02-06T16:47:30.520Z,18.90
2023-02-06T16:49:57.114Z,20.35
2023-02-06T16:52:32.439Z,16.48
2023-02-06T16:55:00.150Z,16.62
2023-02-06T16:57:31.587Z,16.95
2023-02-06T16:59:59.204Z,16.87
2023-02-06T17:02:26.575Z,16.87
2023-02-06T17:04:53.276Z,15.88
2023-02-06T19:05:51.744Z,21.25
2023-02-06T19:08:19.656Z,31.35
2023-02-06T22:15:39.445Z,15.23
2023-02-06T22:18:06.370Z,15.40
2023-02-06T22:21:11.254Z,14.27
2023-02-06T22:23:38.330Z,14.52
2023-02-06T22:26:06.871Z,15.60
2023-02-06T22:28:33.859Z,14.27
2023-02-06T22:34:21.542Z,15.52
2023-02-06T22:36:50.567Z,14.85
2023-02-06T22:39:17.734Z,15.90
2023-02-06T22:41:46.057Z,15.48
2023-02-06T22:44:16.394Z,16.42
2023-02-06T22:46:49.871Z,17.17
2023-02-06T22:49:32.095Z,17.00
2023-02-06T22:51:58.803Z,17.02
2023-02-06T22:54:25.414Z,17.00
2023-02-06T22:56:52.239Z,17.48
2023-02-06T23:03:20.585Z,16.35
2023-02-06T23:06:02.341Z,17.33
2023-02-06T23:08:29.032Z,17.45
2023-02-06T23:10:55.961Z,16.92
2023-02-06T23:13:23.561Z,15.60
2023-02-06T23:15:50.320Z,17.15
2023-02-06T23:18:16.927Z,18.40
2023-02-06T23:20:43.518Z,18.65
2023-02-06T23:23:10.133Z,18.52
2023-02-06T23:25:42.997Z,17.12
2023-02-06T23:28:09.681Z,16.08
2023-02-06T23:30:36.284Z,15.95
2023-02-06T23:33:02.985Z,16.85
2023-02-06T23:39:34.924Z,15.18
2023-02-06T23:42:01.495Z,16.35
2023-02-06T23:44:28.817Z,15.60
2023-02-06T23:46:55.914Z,14.75
2023-02-06T23:49:22.488Z,14.02
